Monday, November 20, 2017, 1:51 PM EST
Back to Local

KGNR, Greenville

Location: Greenville, ME, United States Lat: 45.467
Local Time: 1:51 PM EST (18:51 GMT) Lon: -69.583
Time Zone: US/Eastern Elev: 1400 ft

Show me the last for .
Show Decoded

2017-11-20 12:56 METAR KGNR 201756Z AUTO 31014G27KT M07/M11 A2963 RMK AO1 PK WND 31027/1751
                 SLP055 T10671111 11050 21072 53009 =
2017-11-20 11:56 METAR KGNR 201656Z AUTO 28008G21KT 240V320 M07/M13 A2961 RMK AO1 SLP050
                 T10671133 =
2017-11-20 10:56 METAR KGNR 201556Z AUTO 29010G21KT 220V330 M06/M13 A2961 RMK AO1 SLP049
                 T10611128 =
2017-11-20 09:56 METAR KGNR 201456Z AUTO 30011G20KT M06/M09 A2960 RMK AO1 SLP046 T10561094 51022
                 =

Support USWX by starting your Amazon purchase here.